N112BK KADS-KGZN
Flight info
| Callsign | N112BK |
|---|---|
| Flight time | 1h 14m |
| Altitude | 6000 |
| Route | KINGS5.MQP |
| Aircraft | C172/L-G/C |
Departure
| Time | 2026-05-03 21:29 |
|---|---|
| Airport | Addison Airport (KADS) |
Arrival
| Time | 2026-05-03 22:44 |
|---|---|
| Airport | Gregory M. Simmons Memorial Airport (KGZN) |
| Time | Latitude | Longitude | Altitude | Speed | Heading |
|---|---|---|---|---|---|
| 2026-05-03 21:14 | 32.97495 | -96.83720 | 646 ft | 0 kts | 336° |
| 2026-05-03 21:20 | 32.97505 | -96.83745 | 646 ft | 3 kts | 259° |
| 2026-05-03 21:20 | 32.97496 | -96.83766 | 645 ft | 3 kts | 238° |
| 2026-05-03 21:20 | 32.97487 | -96.83786 | 645 ft | 0 kts | 237° |
| 2026-05-03 21:21 | 32.97484 | -96.83790 | 645 ft | 3 kts | 234° |
| 2026-05-03 21:21 | 32.97515 | -96.83833 | 644 ft | 17 kts | 339° |
| 2026-05-03 21:21 | 32.97656 | -96.83892 | 646 ft | 18 kts | 340° |
| 2026-05-03 21:22 | 32.97730 | -96.83923 | 647 ft | 10 kts | 340° |
| 2026-05-03 21:22 | 32.97816 | -96.83934 | 649 ft | 12 kts | 6° |
| 2026-05-03 21:22 | 32.97834 | -96.83964 | 648 ft | 4 kts | 204° |
| 2026-05-03 21:22 | 32.97831 | -96.83966 | 648 ft | 0 kts | 195° |
| 2026-05-03 21:24 | 32.97827 | -96.83967 | 647 ft | 4 kts | 186° |
| 2026-05-03 21:24 | 32.97810 | -96.83970 | 647 ft | 0 kts | 198° |
| 2026-05-03 21:28 | 32.97807 | -96.83971 | 647 ft | 3 kts | 202° |
| 2026-05-03 21:28 | 32.97761 | -96.84026 | 645 ft | 14 kts | 204° |
| 2026-05-03 21:28 | 32.97610 | -96.83976 | 643 ft | 48 kts | 160° |
| 2026-05-03 21:28 | 32.97180 | -96.83776 | 715 ft | 77 kts | 163° |
| 2026-05-03 21:29 | 32.96649 | -96.83538 | 861 ft | 85 kts | 164° |
| 2026-05-03 21:29 | 32.96096 | -96.83283 | 1076 ft | 84 kts | 164° |
| 2026-05-03 21:29 | 32.95545 | -96.83039 | 1261 ft | 84 kts | 171° |
| 2026-05-03 21:29 | 32.95022 | -96.83050 | 1502 ft | 76 kts | 200° |
| 2026-05-03 21:30 | 32.94533 | -96.83307 | 1673 ft | 79 kts | 211° |
| 2026-05-03 21:30 | 32.94135 | -96.83746 | 1851 ft | 81 kts | 231° |
| 2026-05-03 21:30 | 32.93986 | -96.84360 | 2089 ft | 81 kts | 261° |
| 2026-05-03 21:30 | 32.94017 | -96.85051 | 2246 ft | 86 kts | 265° |
| 2026-05-03 21:31 | 32.94071 | -96.85756 | 2398 ft | 90 kts | 266° |
| 2026-05-03 21:31 | 32.93963 | -96.86469 | 2538 ft | 88 kts | 254° |
| 2026-05-03 21:31 | 32.93864 | -96.87203 | 2663 ft | 92 kts | 253° |
| 2026-05-03 21:31 | 32.93657 | -96.87902 | 2814 ft | 89 kts | 241° |
| 2026-05-03 21:32 | 32.93393 | -96.88559 | 2976 ft | 88 kts | 239° |
| 2026-05-03 21:32 | 32.93114 | -96.89235 | 3016 ft | 99 kts | 239° |
| 2026-05-03 21:32 | 32.92799 | -96.89996 | 3001 ft | 104 kts | 241° |
| 2026-05-03 21:32 | 32.92494 | -96.90749 | 2991 ft | 99 kts | 240° |
| 2026-05-03 21:33 | 32.92202 | -96.91464 | 2995 ft | 95 kts | 239° |
| 2026-05-03 21:33 | 32.91912 | -96.92162 | 2992 ft | 95 kts | 238° |
| 2026-05-03 21:33 | 32.91612 | -96.92874 | 2994 ft | 98 kts | 239° |
| 2026-05-03 21:33 | 32.91310 | -96.93595 | 2996 ft | 101 kts | 239° |
| 2026-05-03 21:34 | 32.91002 | -96.94337 | 2995 ft | 102 kts | 239° |
| 2026-05-03 21:34 | 32.90692 | -96.95080 | 2993 ft | 101 kts | 239° |
| 2026-05-03 21:34 | 32.90382 | -96.95822 | 2995 ft | 102 kts | 239° |
| 2026-05-03 21:34 | 32.90069 | -96.96572 | 2993 ft | 103 kts | 240° |
| 2026-05-03 21:35 | 32.89768 | -96.97295 | 2999 ft | 102 kts | 239° |
| 2026-05-03 21:35 | 32.89458 | -96.98038 | 2995 ft | 103 kts | 239° |
| 2026-05-03 21:35 | 32.89146 | -96.98786 | 2999 ft | 102 kts | 239° |
| 2026-05-03 21:35 | 32.88829 | -96.99540 | 2995 ft | 103 kts | 239° |
| 2026-05-03 21:36 | 32.88515 | -97.00297 | 2992 ft | 103 kts | 239° |
| 2026-05-03 21:36 | 32.88201 | -97.01049 | 2993 ft | 102 kts | 239° |
| 2026-05-03 21:36 | 32.87884 | -97.01802 | 2993 ft | 102 kts | 239° |
| 2026-05-03 21:36 | 32.87576 | -97.02540 | 3089 ft | 95 kts | 239° |
| 2026-05-03 21:37 | 32.87298 | -97.03199 | 3242 ft | 86 kts | 238° |
| 2026-05-03 21:37 | 32.87040 | -97.03807 | 3402 ft | 81 kts | 238° |
| 2026-05-03 21:37 | 32.86863 | -97.04430 | 3552 ft | 80 kts | 247° |
| 2026-05-03 21:37 | 32.86706 | -97.05135 | 3527 ft | 96 kts | 250° |
| 2026-05-03 21:38 | 32.86547 | -97.05921 | 3522 ft | 101 kts | 251° |
| 2026-05-03 21:38 | 32.86387 | -97.06739 | 3517 ft | 103 kts | 251° |
| 2026-05-03 21:38 | 32.86226 | -97.07557 | 3515 ft | 101 kts | 251° |
| 2026-05-03 21:38 | 32.86065 | -97.08361 | 3513 ft | 101 kts | 251° |
| 2026-05-03 21:39 | 32.85903 | -97.09167 | 3513 ft | 101 kts | 252° |
| 2026-05-03 21:39 | 32.85739 | -97.09959 | 3512 ft | 100 kts | 250° |
| 2026-05-03 21:39 | 32.85570 | -97.10761 | 3512 ft | 100 kts | 251° |
| 2026-05-03 21:39 | 32.85403 | -97.11567 | 3511 ft | 101 kts | 251° |
| 2026-05-03 21:40 | 32.85238 | -97.12367 | 3511 ft | 101 kts | 251° |
| 2026-05-03 21:40 | 32.85074 | -97.13169 | 3511 ft | 100 kts | 251° |
| 2026-05-03 21:40 | 32.84911 | -97.13969 | 3511 ft | 100 kts | 251° |
| 2026-05-03 21:40 | 32.84748 | -97.14767 | 3513 ft | 100 kts | 250° |
| 2026-05-03 21:41 | 32.84585 | -97.15564 | 3515 ft | 100 kts | 251° |
| 2026-05-03 21:41 | 32.84422 | -97.16359 | 3515 ft | 100 kts | 251° |
| 2026-05-03 21:41 | 32.84259 | -97.17163 | 3517 ft | 101 kts | 250° |
| 2026-05-03 21:41 | 32.84095 | -97.17969 | 3514 ft | 100 kts | 250° |
| 2026-05-03 21:42 | 32.83932 | -97.18767 | 3517 ft | 100 kts | 251° |
| 2026-05-03 21:42 | 32.83768 | -97.19569 | 3518 ft | 100 kts | 251° |
| 2026-05-03 21:42 | 32.83602 | -97.20374 | 3515 ft | 101 kts | 251° |
| 2026-05-03 21:42 | 32.83438 | -97.21180 | 3514 ft | 101 kts | 250° |
| 2026-05-03 21:43 | 32.83274 | -97.21983 | 3511 ft | 101 kts | 251° |
| 2026-05-03 21:43 | 32.83111 | -97.22788 | 3513 ft | 100 kts | 250° |
| 2026-05-03 21:43 | 32.82947 | -97.23588 | 3516 ft | 100 kts | 251° |
| 2026-05-03 21:43 | 32.82782 | -97.24390 | 3520 ft | 101 kts | 251° |
| 2026-05-03 21:44 | 32.82618 | -97.25195 | 3517 ft | 101 kts | 251° |
| 2026-05-03 21:44 | 32.82455 | -97.26001 | 3515 ft | 100 kts | 250° |
| 2026-05-03 21:44 | 32.82289 | -97.26805 | 3514 ft | 100 kts | 250° |
| 2026-05-03 21:44 | 32.82126 | -97.27601 | 3518 ft | 100 kts | 250° |
| 2026-05-03 21:45 | 32.81962 | -97.28400 | 3513 ft | 100 kts | 250° |
| 2026-05-03 21:45 | 32.81798 | -97.29195 | 3513 ft | 100 kts | 250° |
| 2026-05-03 21:45 | 32.81635 | -97.29991 | 3511 ft | 99 kts | 251° |
| 2026-05-03 21:45 | 32.81471 | -97.30787 | 3508 ft | 99 kts | 250° |
| 2026-05-03 21:46 | 32.81307 | -97.31580 | 3512 ft | 100 kts | 250° |
| 2026-05-03 21:46 | 32.81143 | -97.32376 | 3515 ft | 100 kts | 250° |
| 2026-05-03 21:46 | 32.80978 | -97.33174 | 3515 ft | 100 kts | 250° |
| 2026-05-03 21:46 | 32.80815 | -97.33967 | 3519 ft | 100 kts | 250° |
| 2026-05-03 21:47 | 32.80652 | -97.34765 | 3524 ft | 101 kts | 251° |
| 2026-05-03 21:47 | 32.80487 | -97.35566 | 3524 ft | 101 kts | 250° |
| 2026-05-03 21:47 | 32.80322 | -97.36372 | 3521 ft | 101 kts | 251° |
| 2026-05-03 21:47 | 32.80156 | -97.37181 | 3518 ft | 101 kts | 251° |
| 2026-05-03 21:48 | 32.79992 | -97.37988 | 3513 ft | 101 kts | 251° |
| 2026-05-03 21:48 | 32.79828 | -97.38796 | 3517 ft | 101 kts | 250° |
| 2026-05-03 21:48 | 32.79665 | -97.39602 | 3516 ft | 101 kts | 250° |
| 2026-05-03 21:48 | 32.79502 | -97.40405 | 3519 ft | 100 kts | 250° |
| 2026-05-03 21:49 | 32.79356 | -97.41135 | 3699 ft | 85 kts | 249° |
| 2026-05-03 21:49 | 32.79217 | -97.41788 | 3883 ft | 81 kts | 248° |
| 2026-05-03 21:49 | 32.79077 | -97.42423 | 4072 ft | 79 kts | 246° |
| 2026-05-03 21:49 | 32.78940 | -97.43047 | 4257 ft | 78 kts | 247° |
| 2026-05-03 21:50 | 32.78806 | -97.43656 | 4441 ft | 77 kts | 248° |
| 2026-05-03 21:50 | 32.78673 | -97.44268 | 4609 ft | 78 kts | 247° |
| 2026-05-03 21:50 | 32.78538 | -97.44892 | 4774 ft | 78 kts | 247° |
| 2026-05-03 21:50 | 32.78407 | -97.45513 | 4937 ft | 79 kts | 248° |
| 2026-05-03 21:51 | 32.78275 | -97.46140 | 5104 ft | 79 kts | 248° |
| 2026-05-03 21:51 | 32.78144 | -97.46769 | 5270 ft | 79 kts | 248° |
| 2026-05-03 21:51 | 32.78015 | -97.47393 | 5433 ft | 78 kts | 248° |
| 2026-05-03 21:51 | 32.77885 | -97.48018 | 5598 ft | 78 kts | 249° |
| 2026-05-03 21:52 | 32.77757 | -97.48634 | 5760 ft | 77 kts | 249° |
| 2026-05-03 21:52 | 32.77629 | -97.49251 | 5926 ft | 77 kts | 249° |
| 2026-05-03 21:52 | 32.77499 | -97.49871 | 6037 ft | 84 kts | 249° |
| 2026-05-03 21:52 | 32.77346 | -97.50607 | 6017 ft | 97 kts | 252° |
| 2026-05-03 21:53 | 32.77194 | -97.51399 | 6008 ft | 100 kts | 252° |
| 2026-05-03 21:53 | 32.77039 | -97.52205 | 6008 ft | 101 kts | 252° |
| 2026-05-03 21:53 | 32.76881 | -97.53019 | 6011 ft | 102 kts | 252° |
| 2026-05-03 21:53 | 32.76720 | -97.53837 | 6011 ft | 102 kts | 252° |
| 2026-05-03 21:54 | 32.76560 | -97.54649 | 6010 ft | 102 kts | 251° |
| 2026-05-03 21:54 | 32.76395 | -97.55465 | 6009 ft | 102 kts | 252° |
| 2026-05-03 21:54 | 32.76228 | -97.56281 | 6009 ft | 102 kts | 251° |
| 2026-05-03 21:54 | 32.76062 | -97.57100 | 6010 ft | 102 kts | 251° |
| 2026-05-03 21:55 | 32.75894 | -97.57915 | 6006 ft | 102 kts | 252° |
| 2026-05-03 21:55 | 32.75728 | -97.58727 | 6007 ft | 102 kts | 251° |
| 2026-05-03 21:55 | 32.75562 | -97.59537 | 6010 ft | 101 kts | 251° |
| 2026-05-03 21:55 | 32.75396 | -97.60345 | 6007 ft | 101 kts | 251° |
| 2026-05-03 21:56 | 32.75229 | -97.61157 | 6008 ft | 101 kts | 251° |
| 2026-05-03 21:56 | 32.75062 | -97.61964 | 6010 ft | 101 kts | 251° |
| 2026-05-03 21:56 | 32.74895 | -97.62771 | 6010 ft | 101 kts | 252° |
| 2026-05-03 21:56 | 32.74727 | -97.63580 | 6010 ft | 101 kts | 252° |
| 2026-05-03 21:57 | 32.74558 | -97.64398 | 6012 ft | 101 kts | 251° |
| 2026-05-03 21:57 | 32.74393 | -97.65198 | 6009 ft | 101 kts | 251° |
| 2026-05-03 21:57 | 32.74224 | -97.66014 | 6012 ft | 101 kts | 250° |
| 2026-05-03 21:57 | 32.74055 | -97.66818 | 6011 ft | 101 kts | 250° |
| 2026-05-03 21:58 | 32.73882 | -97.67625 | 6012 ft | 101 kts | 250° |
| 2026-05-03 21:58 | 32.73712 | -97.68431 | 6017 ft | 101 kts | 250° |
| 2026-05-03 21:58 | 32.73548 | -97.69238 | 6015 ft | 101 kts | 250° |
| 2026-05-03 21:58 | 32.73372 | -97.70051 | 6014 ft | 101 kts | 250° |
| 2026-05-03 21:59 | 32.73199 | -97.70860 | 6009 ft | 102 kts | 251° |
| 2026-05-03 21:59 | 32.73034 | -97.71673 | 6010 ft | 102 kts | 251° |
| 2026-05-03 21:59 | 32.72864 | -97.72488 | 6007 ft | 102 kts | 250° |
| 2026-05-03 21:59 | 32.72713 | -97.73311 | 6001 ft | 103 kts | 258° |
| 2026-05-03 22:00 | 32.72693 | -97.74159 | 6003 ft | 103 kts | 264° |
| 2026-05-03 22:00 | 32.72698 | -97.75005 | 6003 ft | 103 kts | 264° |
| 2026-05-03 22:00 | 32.72696 | -97.75852 | 6006 ft | 103 kts | 262° |
| 2026-05-03 22:00 | 32.72692 | -97.76703 | 6009 ft | 104 kts | 264° |
| 2026-05-03 22:01 | 32.72698 | -97.77557 | 6008 ft | 104 kts | 263° |
| 2026-05-03 22:01 | 32.72699 | -97.78413 | 6004 ft | 104 kts | 263° |
| 2026-05-03 22:01 | 32.72692 | -97.79270 | 6003 ft | 104 kts | 262° |
| 2026-05-03 22:01 | 32.72693 | -97.80126 | 6001 ft | 104 kts | 264° |
| 2026-05-03 22:02 | 32.72694 | -97.80984 | 6001 ft | 104 kts | 263° |
| 2026-05-03 22:02 | 32.72695 | -97.81838 | 5999 ft | 104 kts | 263° |
| 2026-05-03 22:02 | 32.72693 | -97.82690 | 6000 ft | 103 kts | 262° |
| 2026-05-03 22:02 | 32.72693 | -97.83539 | 6002 ft | 103 kts | 263° |
| 2026-05-03 22:03 | 32.72697 | -97.84390 | 6000 ft | 103 kts | 263° |
| 2026-05-03 22:03 | 32.72694 | -97.85240 | 5998 ft | 103 kts | 263° |
| 2026-05-03 22:03 | 32.72697 | -97.86087 | 5998 ft | 103 kts | 263° |
| 2026-05-03 22:03 | 32.72698 | -97.86938 | 5996 ft | 104 kts | 263° |
| 2026-05-03 22:04 | 32.72697 | -97.87793 | 5990 ft | 103 kts | 262° |
| 2026-05-03 22:04 | 32.72698 | -97.88639 | 5987 ft | 103 kts | 264° |
| 2026-05-03 22:04 | 32.72697 | -97.89489 | 5983 ft | 103 kts | 263° |
| 2026-05-03 22:04 | 32.72699 | -97.90338 | 5984 ft | 103 kts | 263° |
| 2026-05-03 22:05 | 32.72700 | -97.91188 | 5984 ft | 103 kts | 262° |
| 2026-05-03 22:05 | 32.72698 | -97.92033 | 5982 ft | 103 kts | 262° |
| 2026-05-03 22:05 | 32.72697 | -97.92873 | 5983 ft | 102 kts | 263° |
| 2026-05-03 22:05 | 32.72699 | -97.93717 | 5985 ft | 102 kts | 263° |
| 2026-05-03 22:06 | 32.72693 | -97.94560 | 5988 ft | 103 kts | 262° |
| 2026-05-03 22:06 | 32.72693 | -97.95411 | 5985 ft | 103 kts | 262° |
| 2026-05-03 22:06 | 32.72695 | -97.96253 | 5985 ft | 103 kts | 263° |
| 2026-05-03 22:06 | 32.72693 | -97.97096 | 5986 ft | 102 kts | 263° |
| 2026-05-03 22:07 | 32.72691 | -97.97942 | 5986 ft | 103 kts | 263° |
| 2026-05-03 22:07 | 32.72689 | -97.98788 | 5983 ft | 103 kts | 263° |
| 2026-05-03 22:07 | 32.72663 | -97.99625 | 5980 ft | 100 kts | 252° |
| 2026-05-03 22:07 | 32.72444 | -98.00384 | 5984 ft | 96 kts | 243° |
| 2026-05-03 22:08 | 32.72192 | -98.01120 | 5985 ft | 97 kts | 242° |
| 2026-05-03 22:08 | 32.71942 | -98.01859 | 5988 ft | 97 kts | 243° |
| 2026-05-03 22:08 | 32.71689 | -98.02597 | 5988 ft | 97 kts | 242° |
| 2026-05-03 22:08 | 32.71430 | -98.03344 | 5992 ft | 98 kts | 243° |
| 2026-05-03 22:09 | 32.71175 | -98.04096 | 5992 ft | 99 kts | 243° |
| 2026-05-03 22:09 | 32.70915 | -98.04850 | 5989 ft | 99 kts | 242° |
| 2026-05-03 22:09 | 32.70657 | -98.05604 | 5986 ft | 99 kts | 243° |
| 2026-05-03 22:10 | 32.70143 | -98.07101 | 5985 ft | 98 kts | 243° |
| 2026-05-03 22:10 | 32.69884 | -98.07851 | 5986 ft | 98 kts | 242° |
| 2026-05-03 22:10 | 32.69625 | -98.08603 | 5984 ft | 98 kts | 243° |
| 2026-05-03 22:10 | 32.69369 | -98.09351 | 5983 ft | 98 kts | 243° |
| 2026-05-03 22:11 | 32.69107 | -98.10097 | 5983 ft | 99 kts | 243° |
| 2026-05-03 22:11 | 32.68852 | -98.10854 | 5984 ft | 99 kts | 243° |
| 2026-05-03 22:11 | 32.68598 | -98.11603 | 5985 ft | 98 kts | 242° |
| 2026-05-03 22:11 | 32.68332 | -98.12349 | 5988 ft | 98 kts | 242° |
| 2026-05-03 22:12 | 32.68072 | -98.13101 | 5989 ft | 99 kts | 243° |
| 2026-05-03 22:12 | 32.67810 | -98.13854 | 5989 ft | 100 kts | 242° |
| 2026-05-03 22:12 | 32.67547 | -98.14616 | 5985 ft | 101 kts | 242° |
| 2026-05-03 22:12 | 32.67278 | -98.15381 | 5984 ft | 101 kts | 243° |
| 2026-05-03 22:13 | 32.67018 | -98.16146 | 5981 ft | 100 kts | 243° |
| 2026-05-03 22:13 | 32.66756 | -98.16896 | 5980 ft | 98 kts | 243° |
| 2026-05-03 22:13 | 32.66503 | -98.17645 | 5978 ft | 97 kts | 242° |
| 2026-05-03 22:13 | 32.66244 | -98.18378 | 5975 ft | 96 kts | 243° |
| 2026-05-03 22:14 | 32.65993 | -98.19115 | 5973 ft | 96 kts | 243° |
| 2026-05-03 22:14 | 32.65739 | -98.19844 | 5974 ft | 96 kts | 243° |
| 2026-05-03 22:14 | 32.65482 | -98.20582 | 5974 ft | 97 kts | 242° |
| 2026-05-03 22:14 | 32.65224 | -98.21318 | 5970 ft | 97 kts | 243° |
| 2026-05-03 22:15 | 32.64972 | -98.22063 | 5966 ft | 97 kts | 243° |
| 2026-05-03 22:15 | 32.64717 | -98.22794 | 5966 ft | 97 kts | 243° |
| 2026-05-03 22:15 | 32.64464 | -98.23533 | 5967 ft | 97 kts | 243° |
| 2026-05-03 22:15 | 32.64210 | -98.24269 | 5967 ft | 97 kts | 243° |
| 2026-05-03 22:16 | 32.63950 | -98.25007 | 5970 ft | 97 kts | 242° |
| 2026-05-03 22:16 | 32.63696 | -98.25747 | 5972 ft | 97 kts | 242° |
| 2026-05-03 22:16 | 32.63440 | -98.26484 | 5973 ft | 97 kts | 242° |
| 2026-05-03 22:16 | 32.63180 | -98.27219 | 5977 ft | 96 kts | 242° |
| 2026-05-03 22:17 | 32.62928 | -98.27952 | 5976 ft | 97 kts | 242° |
| 2026-05-03 22:17 | 32.62669 | -98.28686 | 5977 ft | 97 kts | 242° |
| 2026-05-03 22:17 | 32.62408 | -98.29424 | 5976 ft | 97 kts | 243° |
| 2026-05-03 22:17 | 32.62154 | -98.30164 | 5975 ft | 97 kts | 243° |
| 2026-05-03 22:18 | 32.61898 | -98.30905 | 5974 ft | 98 kts | 243° |
| 2026-05-03 22:18 | 32.61640 | -98.31644 | 5974 ft | 97 kts | 242° |
| 2026-05-03 22:18 | 32.61382 | -98.32382 | 5973 ft | 97 kts | 242° |
| 2026-05-03 22:18 | 32.61124 | -98.33122 | 5974 ft | 97 kts | 242° |
| 2026-05-03 22:19 | 32.60866 | -98.33861 | 5973 ft | 97 kts | 242° |
| 2026-05-03 22:19 | 32.60609 | -98.34598 | 5973 ft | 97 kts | 242° |
| 2026-05-03 22:19 | 32.60352 | -98.35338 | 5974 ft | 97 kts | 242° |
| 2026-05-03 22:19 | 32.60094 | -98.36080 | 5977 ft | 97 kts | 242° |
| 2026-05-03 22:20 | 32.59834 | -98.36821 | 5980 ft | 98 kts | 242° |
| 2026-05-03 22:20 | 32.59573 | -98.37565 | 5981 ft | 98 kts | 242° |
| 2026-05-03 22:20 | 32.59314 | -98.38309 | 5983 ft | 98 kts | 243° |
| 2026-05-03 22:20 | 32.59054 | -98.39057 | 5982 ft | 98 kts | 243° |
| 2026-05-03 22:21 | 32.58792 | -98.39807 | 5981 ft | 98 kts | 242° |
| 2026-05-03 22:21 | 32.58532 | -98.40555 | 5980 ft | 98 kts | 242° |
| 2026-05-03 22:21 | 32.58273 | -98.41296 | 5981 ft | 98 kts | 242° |
| 2026-05-03 22:21 | 32.58012 | -98.42038 | 5979 ft | 98 kts | 242° |
| 2026-05-03 22:22 | 32.57751 | -98.42787 | 5978 ft | 98 kts | 243° |
| 2026-05-03 22:22 | 32.57492 | -98.43531 | 5980 ft | 98 kts | 242° |
| 2026-05-03 22:22 | 32.57230 | -98.44278 | 5978 ft | 98 kts | 242° |
| 2026-05-03 22:22 | 32.56969 | -98.45020 | 5979 ft | 98 kts | 242° |
| 2026-05-03 22:23 | 32.56706 | -98.45771 | 5980 ft | 99 kts | 242° |
| 2026-05-03 22:23 | 32.56447 | -98.46518 | 5979 ft | 99 kts | 242° |
| 2026-05-03 22:23 | 32.56183 | -98.47269 | 5978 ft | 99 kts | 242° |
| 2026-05-03 22:23 | 32.55919 | -98.48022 | 5978 ft | 99 kts | 242° |
| 2026-05-03 22:24 | 32.55654 | -98.48774 | 5977 ft | 99 kts | 242° |
| 2026-05-03 22:24 | 32.55386 | -98.49514 | 5978 ft | 98 kts | 241° |
| 2026-05-03 22:24 | 32.55116 | -98.50256 | 5979 ft | 98 kts | 242° |
| 2026-05-03 22:24 | 32.54847 | -98.50993 | 5982 ft | 97 kts | 242° |
| 2026-05-03 22:25 | 32.54578 | -98.51728 | 5983 ft | 98 kts | 242° |
| 2026-05-03 22:25 | 32.54312 | -98.52467 | 5982 ft | 98 kts | 242° |
| 2026-05-03 22:25 | 32.54052 | -98.53207 | 5982 ft | 98 kts | 243° |
| 2026-05-03 22:25 | 32.53791 | -98.53951 | 5982 ft | 98 kts | 243° |
| 2026-05-03 22:26 | 32.53528 | -98.54700 | 5986 ft | 98 kts | 242° |
| 2026-05-03 22:26 | 32.53267 | -98.55445 | 5985 ft | 99 kts | 243° |
| 2026-05-03 22:26 | 32.53004 | -98.56194 | 5987 ft | 99 kts | 242° |
| 2026-05-03 22:26 | 32.52740 | -98.56943 | 5988 ft | 99 kts | 243° |
| 2026-05-03 22:27 | 32.52473 | -98.57700 | 5990 ft | 100 kts | 242° |
| 2026-05-03 22:27 | 32.52207 | -98.58462 | 5989 ft | 101 kts | 242° |
| 2026-05-03 22:27 | 32.51937 | -98.59227 | 5988 ft | 101 kts | 243° |
| 2026-05-03 22:27 | 32.51669 | -98.59992 | 5990 ft | 101 kts | 243° |
| 2026-05-03 22:28 | 32.51400 | -98.60758 | 5989 ft | 101 kts | 243° |
| 2026-05-03 22:28 | 32.51131 | -98.61526 | 5992 ft | 101 kts | 243° |
| 2026-05-03 22:28 | 32.50861 | -98.62293 | 5994 ft | 101 kts | 243° |
| 2026-05-03 22:28 | 32.50592 | -98.63060 | 5996 ft | 101 kts | 242° |
| 2026-05-03 22:29 | 32.50322 | -98.63827 | 5995 ft | 101 kts | 243° |
| 2026-05-03 22:29 | 32.50050 | -98.64597 | 5998 ft | 102 kts | 242° |
| 2026-05-03 22:29 | 32.49777 | -98.65370 | 6001 ft | 102 kts | 242° |
| 2026-05-03 22:29 | 32.49513 | -98.66135 | 5884 ft | 98 kts | 243° |
| 2026-05-03 22:30 | 32.49260 | -98.66868 | 5760 ft | 95 kts | 242° |
| 2026-05-03 22:30 | 32.49010 | -98.67582 | 5637 ft | 93 kts | 242° |
| 2026-05-03 22:30 | 32.48764 | -98.68282 | 5518 ft | 92 kts | 242° |
| 2026-05-03 22:30 | 32.48519 | -98.68979 | 5398 ft | 92 kts | 241° |
| 2026-05-03 22:31 | 32.48276 | -98.69668 | 5278 ft | 91 kts | 241° |
| 2026-05-03 22:31 | 32.48033 | -98.70355 | 5158 ft | 90 kts | 240° |
| 2026-05-03 22:31 | 32.47791 | -98.71039 | 5037 ft | 90 kts | 242° |
| 2026-05-03 22:31 | 32.47551 | -98.71719 | 4918 ft | 90 kts | 242° |
| 2026-05-03 22:32 | 32.47312 | -98.72399 | 4799 ft | 90 kts | 241° |
| 2026-05-03 22:32 | 32.47072 | -98.73080 | 4680 ft | 90 kts | 241° |
| 2026-05-03 22:32 | 32.46832 | -98.73758 | 4558 ft | 90 kts | 241° |
| 2026-05-03 22:32 | 32.46593 | -98.74439 | 4438 ft | 90 kts | 241° |
| 2026-05-03 22:33 | 32.46353 | -98.75119 | 4318 ft | 90 kts | 241° |
| 2026-05-03 22:33 | 32.46112 | -98.75799 | 4200 ft | 90 kts | 241° |
| 2026-05-03 22:33 | 32.45869 | -98.76488 | 4080 ft | 92 kts | 240° |
| 2026-05-03 22:33 | 32.45617 | -98.77191 | 4036 ft | 94 kts | 239° |
| 2026-05-03 22:34 | 32.45354 | -98.77910 | 4040 ft | 97 kts | 239° |
| 2026-05-03 22:34 | 32.45088 | -98.78646 | 4040 ft | 99 kts | 240° |
| 2026-05-03 22:34 | 32.44820 | -98.79396 | 4037 ft | 100 kts | 240° |
| 2026-05-03 22:34 | 32.44550 | -98.80157 | 4041 ft | 101 kts | 240° |
| 2026-05-03 22:35 | 32.44279 | -98.80921 | 4040 ft | 101 kts | 241° |
| 2026-05-03 22:35 | 32.44009 | -98.81686 | 4042 ft | 101 kts | 240° |
| 2026-05-03 22:35 | 32.43740 | -98.82445 | 4042 ft | 101 kts | 241° |
| 2026-05-03 22:35 | 32.43471 | -98.83208 | 4042 ft | 101 kts | 240° |
| 2026-05-03 22:36 | 32.43192 | -98.83972 | 4042 ft | 102 kts | 238° |
| 2026-05-03 22:36 | 32.42893 | -98.84734 | 4043 ft | 104 kts | 239° |
| 2026-05-03 22:36 | 32.42623 | -98.85528 | 4054 ft | 104 kts | 248° |
| 2026-05-03 22:36 | 32.42495 | -98.86361 | 4038 ft | 102 kts | 254° |
| 2026-05-03 22:37 | 32.42389 | -98.87188 | 3956 ft | 102 kts | 255° |
| 2026-05-03 22:37 | 32.42301 | -98.88022 | 3859 ft | 103 kts | 255° |
| 2026-05-03 22:37 | 32.42246 | -98.88866 | 3783 ft | 103 kts | 258° |
| 2026-05-03 22:37 | 32.42181 | -98.89698 | 3712 ft | 101 kts | 255° |
| 2026-05-03 22:38 | 32.42118 | -98.90521 | 3658 ft | 100 kts | 256° |
| 2026-05-03 22:38 | 32.42053 | -98.91340 | 3582 ft | 101 kts | 256° |
| 2026-05-03 22:38 | 32.42006 | -98.92168 | 3520 ft | 101 kts | 258° |
| 2026-05-03 22:38 | 32.41945 | -98.92985 | 3448 ft | 100 kts | 257° |
| 2026-05-03 22:39 | 32.41887 | -98.93804 | 3373 ft | 101 kts | 256° |
| 2026-05-03 22:39 | 32.41825 | -98.94621 | 3325 ft | 100 kts | 258° |
| 2026-05-03 22:39 | 32.41787 | -98.95439 | 3268 ft | 100 kts | 259° |
| 2026-05-03 22:39 | 32.41745 | -98.96258 | 3197 ft | 100 kts | 258° |
| 2026-05-03 22:40 | 32.41705 | -98.97100 | 3140 ft | 105 kts | 259° |
| 2026-05-03 22:40 | 32.41658 | -98.97951 | 3130 ft | 104 kts | 258° |
| 2026-05-03 22:40 | 32.41587 | -98.98797 | 3111 ft | 103 kts | 254° |
| 2026-05-03 22:40 | 32.41496 | -98.99621 | 3119 ft | 102 kts | 256° |
| 2026-05-03 22:41 | 32.41473 | -99.00461 | 3054 ft | 101 kts | 260° |
| 2026-05-03 22:41 | 32.41441 | -99.01289 | 2896 ft | 100 kts | 255° |
| 2026-05-03 22:41 | 32.41163 | -99.01987 | 2725 ft | 89 kts | 220° |
| 2026-05-03 22:41 | 32.40642 | -99.02243 | 2584 ft | 76 kts | 188° |
| 2026-05-03 22:42 | 32.40130 | -99.02263 | 2468 ft | 72 kts | 184° |
| 2026-05-03 22:42 | 32.39663 | -99.02305 | 2400 ft | 64 kts | 184° |
| 2026-05-03 22:42 | 32.39237 | -99.02318 | 2362 ft | 58 kts | 185° |
| 2026-05-03 22:42 | 32.38823 | -99.02328 | 2268 ft | 61 kts | 185° |
| 2026-05-03 22:43 | 32.38397 | -99.02334 | 2146 ft | 63 kts | 182° |
| 2026-05-03 22:43 | 32.37969 | -99.02342 | 1995 ft | 61 kts | 182° |
| 2026-05-03 22:43 | 32.37552 | -99.02351 | 1834 ft | 60 kts | 185° |
| 2026-05-03 22:43 | 32.37149 | -99.02360 | 1729 ft | 54 kts | 182° |
| 2026-05-03 22:44 | 32.36838 | -99.02363 | 1719 ft | 34 kts | 183° |
| 2026-05-03 22:44 | 32.36667 | -99.02373 | 1714 ft | 14 kts | 192° |
| 2026-05-03 22:44 | 32.36652 | -99.02358 | 1714 ft | 13 kts | 13° |
| 2026-05-03 22:44 | 32.36784 | -99.02362 | 1713 ft | 18 kts | 0° |
| 2026-05-03 22:45 | 32.36914 | -99.02361 | 1712 ft | 20 kts | 4° |
| 2026-05-03 22:45 | 32.37056 | -99.02361 | 1709 ft | 17 kts | 352° |
| 2026-05-03 22:45 | 32.37104 | -99.02438 | 1710 ft | 11 kts | 268° |
| 2026-05-03 22:45 | 32.37130 | -99.02505 | 1710 ft | 10 kts | 349° |
| 2026-05-03 22:46 | 32.37172 | -99.02519 | 1710 ft | 2 kts | 214° |
| 2026-05-03 22:46 | 32.37147 | -99.02524 | 1710 ft | 2 kts | 179° |